Аэропорт: им. Гейдара Алиева. Баку

ICAO: UBBB

METAR:
2021-01-27 02:30:00
UBBB 270230Z 17008KT 1600 BR BKN010 05/05 Q1020 R88/CLRD// NOSIG
METAR:
2021-01-26 23:08:00
TAF UBBB 262308Z 2700/2724 16006KT 0800 FZFG SCT004 TX10/2710Z TNM01/2700Z TEMPO 2700/2702 30005KT 0200 SCT002 TEMPO 2702/2704 4000 BR SCT012 BECMG 2704/2706 17016KT 9999 NSW SCT012 TEMPO 2716/2724 18012KT 4000 BR BCFG FEW004